Time;durP1;ratioP1;P1;durP2;ratioP2;P2;SDS_P1;SDS_P2;PMS_P1;PMS_P2;Temp;Humidity;BMP_temperature;BMP_pressure;BME280_temperature;BME280_humidity;BME280_pressure;Samples;Min_cycle;Max_cycle;Signal;HPM_P1;HPM_P2
2022/04/27 00:00:28;;;;;;;12.70;8.38;;;4.00;99.90;;;;;;5032441;28;20521;-68
2022/04/27 00:02:56;;;;;;;13.77;8.00;;;4.00;99.90;;;;;;5029547;28;20061;-68
2022/04/27 00:05:21;;;;;;;12.23;7.70;;;4.00;99.90;;;;;;5032996;28;20081;-67
2022/04/27 00:07:47;;;;;;;9.55;8.43;;;4.00;99.90;;;;;;5031233;28;20126;-66
2022/04/27 00:10:13;;;;;;;10.68;8.43;;;4.00;99.90;;;;;;5031765;28;20409;-67
2022/04/27 00:12:39;;;;;;;12.55;8.25;;;4.00;99.90;;;;;;5032319;28;20073;-67
2022/04/27 00:15:06;;;;;;;10.60;8.20;;;4.00;99.90;;;;;;5014789;28;20681;-68
2022/04/27 00:17:32;;;;;;;9.63;8.13;;;3.90;99.90;;;;;;5014911;28;20029;-67
2022/04/27 00:19:58;;;;;;;11.23;8.07;;;3.90;99.90;;;;;;5032390;28;20044;-68
2022/04/27 00:22:23;;;;;;;12.48;7.75;;;3.80;99.90;;;;;;5014860;28;20045;-68
2022/04/27 00:24:49;;;;;;;12.27;8.20;;;3.80;99.90;;;;;;5031308;28;20041;-68
2022/04/27 00:27:15;;;;;;;12.30;8.82;;;3.80;99.90;;;;;;5031184;28;20376;-68
2022/04/27 00:29:41;;;;;;;11.30;7.70;;;3.80;99.90;;;;;;5031687;28;20046;-68
2022/04/27 00:32:07;;;;;;;13.82;9.07;;;3.70;99.90;;;;;;5030971;28;20052;-67
2022/04/27 00:34:33;;;;;;;12.13;8.70;;;3.80;99.90;;;;;;5033019;28;20489;-67
2022/04/27 00:36:59;;;;;;;12.60;8.60;;;3.80;99.90;;;;;;5031542;28;20041;-67
2022/04/27 00:39:24;;;;;;;13.27;7.90;;;3.80;99.90;;;;;;5034935;28;20077;-67
2022/04/27 00:41:59;;;;;;;12.23;8.63;;;3.80;99.90;;;;;;5031265;28;20029;-67
2022/04/27 00:44:30;;;;;;;11.98;8.70;;;3.80;99.90;;;;;;5029537;28;20124;-67
2022/04/27 00:46:56;;;;;;;13.25;9.85;;;3.80;99.90;;;;;;5031716;28;20033;-67
2022/04/27 00:49:21;;;;;;;9.82;8.35;;;3.80;99.90;;;;;;5029515;28;20069;-68
2022/04/27 00:51:51;;;;;;;9.88;8.82;;;3.70;99.90;;;;;;5031049;28;20064;-68
2022/04/27 00:54:18;;;;;;;11.20;8.77;;;3.70;99.90;;;;;;5030739;28;20339;-68
2022/04/27 00:56:44;;;;;;;12.65;8.50;;;3.70;99.90;;;;;;5028838;28;20045;-68
2022/04/27 00:59:10;;;;;;;10.82;8.15;;;3.70;99.90;;;;;;5033207;28;20100;-68
2022/04/27 01:01:35;;;;;;;12.57;8.52;;;3.70;99.90;;;;;;5032333;28;20049;-68
2022/04/27 01:04:05;;;;;;;11.82;8.60;;;3.70;99.90;;;;;;5029728;28;20116;-68
2022/04/27 01:06:31;;;;;;;12.90;8.73;;;3.60;99.90;;;;;;5030305;28;20033;-68
2022/04/27 01:08:56;;;;;;;14.18;8.27;;;3.60;99.90;;;;;;5029743;28;20457;-68
2022/04/27 01:11:22;;;;;;;10.80;8.40;;;3.60;99.90;;;;;;5031395;28;20482;-68
2022/04/27 01:13:48;;;;;;;13.55;8.57;;;3.70;99.90;;;;;;5031780;28;20095;-68
2022/04/27 01:16:14;;;;;;;13.30;8.27;;;3.70;99.90;;;;;;5031720;28;20073;-67
2022/04/27 01:18:39;;;;;;;11.95;8.57;;;3.60;99.90;;;;;;5029278;28;20073;-68
2022/04/27 01:21:05;;;;;;;13.57;8.85;;;3.60;99.90;;;;;;5030306;28;20041;-66
2022/04/27 01:23:31;;;;;;;10.70;8.40;;;3.60;99.90;;;;;;5028983;28;20092;-68
2022/04/27 01:26:08;;;;;;;12.48;8.70;;;3.50;99.90;;;;;;5030390;28;20045;-67
2022/04/27 01:28:36;;;;;;;11.70;8.15;;;3.50;99.90;;;;;;5033290;28;20048;-68
2022/04/27 01:31:05;;;;;;;14.05;8.35;;;3.50;99.90;;;;;;5030345;28;20351;-68
2022/04/27 01:33:34;;;;;;;12.35;7.78;;;3.50;99.90;;;;;;5028765;28;20049;-68
2022/04/27 01:36:00;;;;;;;13.43;8.48;;;3.60;99.90;;;;;;5029241;28;20081;-68
2022/04/27 01:38:27;;;;;;;8.93;7.90;;;3.50;99.90;;;;;;5031465;28;20040;-68
2022/04/27 01:40:54;;;;;;;13.93;8.02;;;3.50;99.90;;;;;;5030938;28;20056;-68
2022/04/27 01:43:24;;;;;;;10.10;8.55;;;3.60;99.90;;;;;;5029479;28;20049;-68
2022/04/27 01:45:53;;;;;;;13.05;8.43;;;3.60;99.90;;;;;;5028857;28;20555;-68
2022/04/27 01:48:19;;;;;;;12.55;8.70;;;3.70;99.90;;;;;;5030723;28;20048;-68
2022/04/27 01:50:45;;;;;;;13.57;8.80;;;3.70;99.90;;;;;;5031112;28;20080;-68
2022/04/27 01:55:55;;;;;;;9.90;8.35;;;3.90;99.90;;;;;;5028611;28;20373;-68
2022/04/27 01:58:22;;;;;;;11.93;8.85;;;4.00;99.90;;;;;;5030293;28;20046;-68
2022/04/27 02:00:48;;;;;;;10.80;8.90;;;4.10;99.90;;;;;;5030244;28;20075;-68
2022/04/27 02:03:15;;;;;;;11.95;9.00;;;4.00;99.90;;;;;;5028993;28;20390;-67
2022/04/27 02:05:41;;;;;;;10.48;8.55;;;4.20;99.90;;;;;;5029990;28;20396;-67
2022/04/27 02:08:07;;;;;;;10.75;8.60;;;4.20;99.90;;;;;;5030738;28;20375;-67
2022/04/27 02:10:34;;;;;;;12.45;8.48;;;4.30;99.90;;;;;;5029207;28;20052;-67
2022/04/27 02:13:04;;;;;;;12.55;8.32;;;4.40;99.90;;;;;;5029824;28;20066;-67
2022/04/27 02:15:30;;;;;;;13.52;8.00;;;4.40;99.90;;;;;;5030735;28;20441;-67
2022/04/27 02:17:56;;;;;;;11.60;8.43;;;4.50;99.90;;;;;;5011687;28;20045;-67
2022/04/27 02:20:23;;;;;;;9.35;8.02;;;4.50;99.90;;;;;;5030701;28;20475;-67
2022/04/27 02:22:49;;;;;;;12.85;8.60;;;4.50;99.90;;;;;;5029619;28;20033;-67
2022/04/27 02:25:15;;;;;;;13.63;8.50;;;4.60;99.90;;;;;;5031666;28;20423;-67
2022/04/27 02:27:43;;;;;;;9.68;8.30;;;4.60;99.90;;;;;;5028540;28;20167;-67
2022/04/27 02:30:10;;;;;;;11.48;8.20;;;4.60;99.90;;;;;;5032744;28;20041;-67
2022/04/27 02:32:36;;;;;;;11.10;8.05;;;4.70;99.90;;;;;;5029470;28;20102;-69
2022/04/27 02:35:03;;;;;;;11.35;9.00;;;4.70;99.90;;;;;;5030124;28;20052;-68
2022/04/27 02:37:30;;;;;;;10.32;8.40;;;4.70;99.90;;;;;;5012024;28;20049;-68
2022/04/27 02:39:56;;;;;;;11.15;8.45;;;4.80;99.90;;;;;;5030385;28;20045;-68
2022/04/27 02:42:22;;;;;;;11.07;8.63;;;4.80;99.90;;;;;;5028652;28;20385;-68
2022/04/27 02:44:48;;;;;;;11.00;8.35;;;4.80;99.90;;;;;;5028354;28;20156;-68
2022/04/27 02:47:14;;;;;;;10.57;8.38;;;4.90;99.90;;;;;;5028727;28;20040;-67
2022/04/27 02:52:24;;;;;;;11.73;8.50;;;4.90;99.90;;;;;;5027649;28;20152;-68
2022/04/27 02:54:50;;;;;;;13.55;9.23;;;5.00;99.90;;;;;;5028581;28;20143;-68
2022/04/27 02:57:16;;;;;;;13.15;9.88;;;5.00;99.90;;;;;;5028983;28;20045;-68
2022/04/27 02:59:43;;;;;;;13.55;8.68;;;5.00;99.90;;;;;;5028916;28;20068;-68
2022/04/27 03:02:09;;;;;;;11.60;9.30;;;5.00;99.90;;;;;;5028692;28;20049;-68
2022/04/27 03:04:34;;;;;;;12.10;8.73;;;5.00;99.90;;;;;;5031645;28;20038;-68
2022/04/27 03:07:00;;;;;;;12.40;8.45;;;5.10;99.90;;;;;;5028994;28;20138;-68
2022/04/27 03:09:26;;;;;;;15.93;9.75;;;5.10;99.90;;;;;;5025907;28;20057;-68
2022/04/27 03:11:55;;;;;;;13.45;9.07;;;5.10;99.90;;;;;;5030624;28;20045;-68
2022/04/27 03:14:21;;;;;;;12.02;9.57;;;5.10;99.90;;;;;;5029486;28;20050;-68
2022/04/27 03:16:50;;;;;;;14.82;9.48;;;5.10;99.90;;;;;;5029500;28;20073;-67
2022/04/27 03:19:15;;;;;;;16.20;9.13;;;5.10;99.90;;;;;;5014327;28;20045;-68
2022/04/27 03:21:41;;;;;;;15.35;9.57;;;5.20;99.90;;;;;;5030701;28;20044;-68
2022/04/27 03:24:07;;;;;;;15.10;9.80;;;5.10;99.90;;;;;;5026845;28;20042;-68
2022/04/27 03:26:33;;;;;;;11.65;9.18;;;5.10;99.90;;;;;;5028570;28;20041;-68
2022/04/27 03:28:59;;;;;;;14.93;9.57;;;5.10;99.90;;;;;;5031779;28;20033;-68
2022/04/27 03:31:25;;;;;;;9.98;8.35;;;5.10;99.90;;;;;;5029244;28;20037;-68
2022/04/27 03:33:51;;;;;;;11.20;8.77;;;5.10;99.90;;;;;;5029161;28;20037;-67
2022/04/27 03:36:17;;;;;;;13.95;9.82;;;5.20;99.90;;;;;;5033796;28;20064;-67
2022/04/27 03:38:43;;;;;;;12.50;9.20;;;5.20;99.90;;;;;;5032533;28;20068;-68
2022/04/27 03:41:09;;;;;;;14.02;9.18;;;5.20;99.90;;;;;;5032609;28;20029;-68
2022/04/27 03:43:35;;;;;;;18.08;9.07;;;5.30;99.90;;;;;;5033675;28;20505;-68
2022/04/27 03:46:01;;;;;;;10.38;9.35;;;5.30;99.90;;;;;;5031278;28;20598;-68
2022/04/27 03:48:26;;;;;;;14.88;10.00;;;5.30;99.90;;;;;;5030384;28;20041;-68
2022/04/27 03:50:52;;;;;;;13.63;10.27;;;5.30;99.90;;;;;;5033570;28;20083;-68
2022/04/27 03:53:18;;;;;;;13.98;9.63;;;5.40;99.90;;;;;;5031217;28;20053;-68
2022/04/27 03:55:43;;;;;;;11.90;9.60;;;5.40;99.90;;;;;;5033158;28;20045;-68
2022/04/27 03:58:09;;;;;;;12.85;9.43;;;5.40;99.90;;;;;;5031068;28;20057;-68
2022/04/27 04:00:35;;;;;;;12.40;9.32;;;5.40;99.90;;;;;;5031429;28;20041;-68
2022/04/27 04:03:02;;;;;;;13.68;9.93;;;5.50;99.90;;;;;;5028713;28;20132;-68
2022/04/27 04:05:28;;;;;;;12.38;9.18;;;5.50;99.90;;;;;;5031838;28;20497;-68
2022/04/27 04:07:54;;;;;;;12.55;9.15;;;5.60;99.90;;;;;;5032993;28;20371;-68
2022/04/27 04:10:20;;;;;;;13.25;9.30;;;5.60;99.90;;;;;;5032971;28;20052;-68
2022/04/27 04:12:46;;;;;;;12.32;9.00;;;5.60;99.90;;;;;;5031103;28;20034;-68
2022/04/27 04:15:12;;;;;;;12.57;8.85;;;5.60;99.90;;;;;;5032361;28;20055;-68
2022/04/27 04:17:45;;;;;;;15.93;9.38;;;5.70;99.90;;;;;;5030969;28;20434;-68
2022/04/27 04:20:13;;;;;;;12.88;8.95;;;5.70;99.90;;;;;;5031038;28;20073;-68
2022/04/27 04:22:39;;;;;;;14.23;9.00;;;5.70;99.90;;;;;;5014031;28;20133;-67
2022/04/27 04:30:34;;;;;;;9.45;8.25;;;5.90;99.90;;;;;;5031328;28;20064;-68
2022/04/27 04:33:00;;;;;;;12.52;8.38;;;5.90;99.90;;;;;;5030604;28;20049;-69
2022/04/27 04:35:25;;;;;;;11.82;8.00;;;5.90;99.90;;;;;;5031142;28;20433;-68
2022/04/27 04:37:52;;;;;;;10.00;7.90;;;6.00;99.90;;;;;;5032578;28;20037;-67
2022/04/27 04:40:17;;;;;;;10.27;7.90;;;6.00;99.90;;;;;;5031925;28;20141;-68
2022/04/27 04:42:43;;;;;;;12.55;8.10;;;6.00;99.90;;;;;;5014094;28;20049;-68
2022/04/27 04:45:09;;;;;;;11.88;7.40;;;6.10;99.90;;;;;;5030312;28;20080;-68
2022/04/27 04:47:35;;;;;;;11.55;7.70;;;6.10;99.90;;;;;;5029316;28;20049;-68
2022/04/27 04:50:00;;;;;;;8.80;7.35;;;6.10;99.90;;;;;;5030837;28;20324;-68
2022/04/27 04:52:27;;;;;;;11.43;7.28;;;6.20;99.90;;;;;;5029928;28;20071;-68
2022/04/27 04:54:53;;;;;;;10.15;6.85;;;6.30;99.90;;;;;;5031928;28;20084;-68
2022/04/27 04:57:19;;;;;;;13.32;7.82;;;6.30;99.90;;;;;;5032074;28;20194;-68
2022/04/27 04:59:44;;;;;;;7.95;6.38;;;6.40;99.90;;;;;;5030101;28;20053;-68
2022/04/27 05:02:10;;;;;;;11.55;6.65;;;6.40;99.90;;;;;;5030367;28;20048;-68
2022/04/27 05:04:36;;;;;;;9.32;5.93;;;6.40;99.90;;;;;;5029250;28;20061;-68
2022/04/27 05:07:02;;;;;;;9.52;6.40;;;6.40;99.90;;;;;;5013909;28;20060;-68
2022/04/27 05:09:27;;;;;;;9.80;5.28;;;6.40;99.90;;;;;;5030776;28;20037;-68
2022/04/27 05:11:53;;;;;;;7.68;5.38;;;6.40;99.90;;;;;;5030061;28;20191;-68
2022/04/27 05:14:19;;;;;;;7.93;5.50;;;6.50;99.90;;;;;;5032047;28;20118;-68
2022/04/27 05:16:44;;;;;;;9.68;5.72;;;6.60;99.90;;;;;;5030534;28;20040;-68
2022/04/27 05:19:10;;;;;;;8.25;6.13;;;6.70;99.90;;;;;;5030974;28;20044;-68
2022/04/27 05:21:36;;;;;;;9.60;6.20;;;6.70;99.90;;;;;;5029887;28;20045;-68
2022/04/27 05:24:01;;;;;;;9.15;6.68;;;6.80;99.90;;;;;;4997422;28;20041;-68
2022/04/27 05:26:27;;;;;;;9.05;6.35;;;6.80;99.90;;;;;;5013673;28;20037;-68
2022/04/27 05:31:55;;;;;;;12.13;6.47;;;6.90;99.90;;;;;;5031120;28;20052;-67
2022/04/27 05:34:26;;;;;;;9.80;6.35;;;6.90;99.90;;;;;;5030545;28;20098;-67
2022/04/27 05:36:51;;;;;;;8.77;5.95;;;6.90;99.90;;;;;;5029798;28;20041;-68
2022/04/27 05:39:21;;;;;;;8.93;6.30;;;6.90;99.90;;;;;;5029475;28;20048;-68
2022/04/27 05:41:49;;;;;;;11.77;7.13;;;7.00;99.90;;;;;;5028657;28;20044;-68
2022/04/27 05:44:25;;;;;;;11.35;7.03;;;7.10;99.90;;;;;;5029558;28;20729;-68
2022/04/27 05:46:52;;;;;;;7.60;6.32;;;7.10;99.90;;;;;;5030978;28;20051;-68
2022/04/27 05:49:18;;;;;;;8.40;6.45;;;7.10;99.90;;;;;;5030556;28;20140;-67
2022/04/27 05:51:45;;;;;;;9.40;7.28;;;7.20;99.90;;;;;;5031493;28;20046;-67
2022/04/27 05:54:11;;;;;;;7.88;5.93;;;7.30;99.90;;;;;;5028846;28;20053;-68
2022/04/27 05:56:37;;;;;;;8.77;6.40;;;7.30;99.90;;;;;;5031112;28;20084;-68
2022/04/27 05:59:03;;;;;;;12.20;6.72;;;7.30;99.90;;;;;;5029853;28;20394;-68
2022/04/27 06:01:29;;;;;;;9.63;5.90;;;7.40;99.90;;;;;;5031160;28;20041;-68
2022/04/27 06:03:55;;;;;;;10.90;7.50;;;7.40;99.90;;;;;;5027980;28;20041;-68
2022/04/27 06:06:22;;;;;;;8.65;6.32;;;7.40;99.90;;;;;;5029840;28;20409;-68
2022/04/27 06:08:48;;;;;;;8.23;5.75;;;7.50;99.90;;;;;;5032881;28;20374;-68
2022/04/27 06:11:13;;;;;;;9.10;6.00;;;7.50;99.90;;;;;;5031007;28;20045;-68
2022/04/27 06:13:39;;;;;;;9.73;6.07;;;7.60;99.90;;;;;;5029209;28;20450;-68
2022/04/27 06:16:05;;;;;;;9.10;5.80;;;7.70;99.90;;;;;;5031082;28;20048;-68
2022/04/27 06:18:31;;;;;;;8.85;6.15;;;7.70;99.90;;;;;;5028126;28;20107;-68
2022/04/27 06:20:57;;;;;;;10.85;6.63;;;7.70;99.90;;;;;;5029707;28;20041;-68
2022/04/27 06:23:23;;;;;;;7.60;6.22;;;7.90;99.90;;;;;;5028477;28;20076;-68
2022/04/27 06:25:49;;;;;;;8.27;5.68;;;7.90;99.90;;;;;;5012340;28;20080;-68
2022/04/27 06:28:19;;;;;;;8.65;6.07;;;8.00;99.90;;;;;;5031204;28;20037;-68
2022/04/27 06:30:45;;;;;;;8.60;5.47;;;8.10;99.90;;;;;;5028338;28;20042;-67
2022/04/27 06:33:11;;;;;;;7.70;4.95;;;8.20;99.90;;;;;;5027808;28;20103;-68
2022/04/27 06:35:37;;;;;;;7.25;4.25;;;8.20;99.90;;;;;;5028778;28;20110;-68
2022/04/27 06:38:03;;;;;;;7.68;4.50;;;8.30;99.90;;;;;;5028657;28;20482;-68
2022/04/27 06:40:29;;;;;;;7.25;4.00;;;8.40;99.90;;;;;;5030552;28;20045;-69
2022/04/27 06:42:56;;;;;;;6.15;4.30;;;8.50;99.90;;;;;;5030509;28;20493;-68
2022/04/27 06:45:27;;;;;;;8.10;4.05;;;8.50;99.90;;;;;;5028941;28;20053;-68
2022/04/27 06:47:54;;;;;;;5.57;4.50;;;8.60;99.90;;;;;;5028165;28;20226;-68
2022/04/27 06:50:20;;;;;;;5.47;3.40;;;8.70;99.90;;;;;;5030514;28;20482;-67
2022/04/27 06:52:46;;;;;;;8.05;4.00;;;8.70;99.90;;;;;;5027403;28;20160;-67
2022/04/27 06:55:12;;;;;;;5.93;3.67;;;8.70;99.90;;;;;;5030535;28;20047;-68
2022/04/27 06:57:38;;;;;;;6.63;3.17;;;8.80;99.90;;;;;;5025303;28;20053;-68
2022/04/27 07:00:04;;;;;;;4.68;3.10;;;8.90;99.90;;;;;;5028273;28;20049;-68
2022/04/27 07:02:32;;;;;;;5.70;3.53;;;9.00;99.90;;;;;;5028784;28;20092;-68
2022/04/27 07:05:01;;;;;;;5.80;4.53;;;9.00;99.90;;;;;;5027609;28;20254;-68
2022/04/27 07:07:27;;;;;;;6.15;3.90;;;9.10;99.90;;;;;;5027954;28;20048;-67
2022/04/27 07:09:53;;;;;;;5.45;3.72;;;9.10;99.90;;;;;;5031069;28;20057;-67
2022/04/27 07:12:20;;;;;;;7.97;3.72;;;9.10;99.90;;;;;;5033703;28;20041;-67
2022/04/27 07:14:47;;;;;;;4.40;3.28;;;9.20;99.90;;;;;;5032298;28;20056;-67
2022/04/27 07:17:12;;;;;;;5.47;3.05;;;9.20;99.90;;;;;;5032834;28;20061;-67
2022/04/27 07:19:38;;;;;;;8.40;3.53;;;9.30;99.90;;;;;;5031617;28;20052;-67
2022/04/27 07:22:05;;;;;;;5.75;2.97;;;9.40;99.90;;;;;;5033824;28;20124;-67
2022/04/27 07:24:32;;;;;;;6.78;2.85;;;9.50;99.90;;;;;;5034694;28;20758;-68
2022/04/27 07:26:58;;;;;;;4.95;2.10;;;9.60;99.90;;;;;;5032421;28;20076;-68
2022/04/27 07:29:24;;;;;;;3.85;1.90;;;9.70;99.10;;;;;;5033583;28;20123;-68
2022/04/27 07:31:50;;;;;;;5.32;2.55;;;9.70;97.70;;;;;;5032164;28;20047;-68
2022/04/27 07:34:16;;;;;;;5.40;1.50;;;9.80;97.70;;;;;;5032787;28;20042;-68
2022/04/27 07:36:42;;;;;;;3.70;1.35;;;9.80;96.30;;;;;;5032221;28;20059;-68
2022/04/27 07:39:07;;;;;;;2.85;1.20;;;9.90;96.40;;;;;;5031685;28;20029;-68
2022/04/27 07:41:33;;;;;;;4.88;1.40;;;10.00;95.00;;;;;;5031402;28;20464;-68
2022/04/27 07:43:59;;;;;;;2.40;0.75;;;10.00;94.40;;;;;;5031285;28;20041;-68
2022/04/27 07:46:25;;;;;;;3.53;0.82;;;10.10;93.10;;;;;;5032927;28;20049;-68
2022/04/27 07:48:54;;;;;;;4.60;0.98;;;10.20;93.30;;;;;;5032592;28;20065;-68
2022/04/27 07:51:21;;;;;;;3.80;1.10;;;10.30;93.10;;;;;;5033283;28;20049;-68
2022/04/27 07:53:47;;;;;;;2.78;1.00;;;10.40;93.30;;;;;;5028721;28;20041;-68
2022/04/27 07:56:13;;;;;;;4.18;0.85;;;10.50;91.40;;;;;;5033334;28;20041;-68
2022/04/27 07:58:39;;;;;;;2.78;1.00;;;10.60;90.90;;;;;;5032831;28;20041;-68
2022/04/27 08:01:05;;;;;;;5.57;1.08;;;10.70;90.90;;;;;;5033308;28;20124;-68
2022/04/27 08:03:30;;;;;;;2.17;0.60;;;10.90;90.60;;;;;;5030384;28;20048;-68
2022/04/27 08:05:56;;;;;;;3.55;0.90;;;11.00;87.70;;;;;;5031883;28;20148;-68
2022/04/27 08:08:22;;;;;;;3.40;1.10;;;11.00;85.40;;;;;;5032516;28;20864;-68
2022/04/27 08:10:48;;;;;;;2.65;1.20;;;11.00;84.80;;;;;;5031491;28;20041;-68
2022/04/27 08:13:17;;;;;;;3.67;0.90;;;11.00;83.90;;;;;;5031341;28;20482;-68
2022/04/27 08:15:44;;;;;;;4.20;1.00;;;10.90;80.00;;;;;;5031443;28;20044;-67
2022/04/27 08:18:10;;;;;;;4.00;0.95;;;10.80;78.80;;;;;;5030328;28;20038;-67
2022/04/27 08:23:29;;;;;;;4.78;1.00;;;10.90;79.30;;;;;;5031387;28;20111;-68
2022/04/27 08:25:57;;;;;;;3.95;0.90;;;11.00;80.50;;;;;;5031201;28;20037;-67
2022/04/27 08:28:23;;;;;;;6.55;1.17;;;11.00;79.30;;;;;;5031151;28;20381;-67
2022/04/27 08:30:50;;;;;;;3.17;0.80;;;11.10;79.10;;;;;;5031527;28;20048;-68
2022/04/27 08:33:17;;;;;;;2.42;0.80;;;11.10;78.10;;;;;;5032666;28;20099;-68
2022/04/27 08:35:43;;;;;;;2.83;0.68;;;11.20;77.80;;;;;;5032606;28;20743;-68
2022/04/27 08:38:10;;;;;;;1.75;0.80;;;11.30;75.60;;;;;;5031913;28;20039;-67
2022/04/27 08:40:39;;;;;;;2.50;0.90;;;11.20;75.50;;;;;;5030976;28;20103;-68
2022/04/27 08:43:05;;;;;;;7.47;1.02;;;11.30;75.10;;;;;;5030686;28;20045;-68
2022/04/27 08:45:32;;;;;;;4.72;1.02;;;11.20;73.20;;;;;;5031633;28;20052;-68
2022/04/27 08:47:59;;;;;;;4.63;0.90;;;11.30;75.20;;;;;;5013843;28;20049;-69
2022/04/27 08:50:26;;;;;;;3.00;0.70;;;11.40;75.80;;;;;;5030542;28;20042;-69
2022/04/27 08:52:52;;;;;;;3.95;0.95;;;11.50;73.50;;;;;;5026066;28;20282;-69
2022/04/27 08:55:19;;;;;;;3.22;0.75;;;11.70;74.40;;;;;;5030512;28;20413;-68
2022/04/27 08:57:45;;;;;;;2.83;0.68;;;11.90;70.60;;;;;;5032453;28;20041;-68
2022/04/27 09:00:16;;;;;;;5.53;0.80;;;12.10;72.70;;;;;;5032132;28;20374;-68
2022/04/27 09:02:42;;;;;;;3.85;0.93;;;12.30;72.00;;;;;;5031673;28;20683;-68
2022/04/27 09:05:21;;;;;;;3.80;0.70;;;12.50;71.90;;;;;;5030087;28;20048;-69
2022/04/27 09:07:52;;;;;;;3.35;0.70;;;12.60;68.60;;;;;;5030917;28;20125;-69
2022/04/27 09:10:21;;;;;;;4.00;1.08;;;12.50;67.20;;;;;;5032070;28;20499;-68
2022/04/27 09:12:57;;;;;;;3.67;1.08;;;12.50;69.20;;;;;;5031689;28;20045;-68
2022/04/27 09:15:26;;;;;;;4.30;1.33;;;12.60;68.50;;;;;;5030412;28;20140;-68
2022/04/27 09:20:50;;;;;;;4.60;1.10;;;12.50;68.90;;;;;;5031163;28;20052;-68
2022/04/27 09:23:22;;;;;;;5.82;1.08;;;12.40;67.70;;;;;;5029552;28;20041;-68
2022/04/27 09:25:50;;;;;;;5.68;1.65;;;12.40;67.60;;;;;;5031669;28;20061;-68
2022/04/27 09:28:16;;;;;;;3.00;0.80;;;12.40;68.90;;;;;;5031680;28;20052;-68
2022/04/27 09:30:44;;;;;;;5.80;1.27;;;12.30;67.70;;;;;;5029913;28;20052;-69
2022/04/27 09:33:09;;;;;;;3.25;0.93;;;12.30;69.50;;;;;;5030605;28;20048;-69
2022/04/27 09:35:37;;;;;;;3.92;0.88;;;12.30;67.20;;;;;;5032237;28;20038;-69
2022/04/27 09:38:13;;;;;;;4.25;1.00;;;12.30;68.30;;;;;;5029625;28;20049;-69
2022/04/27 09:40:52;;;;;;;7.97;1.10;;;12.30;68.00;;;;;;5029535;28;20063;-68
2022/04/27 09:43:43;;;;;;;5.05;0.98;;;12.30;67.40;;;;;;5030921;28;20075;-69
2022/04/27 09:46:22;;;;;;;5.72;1.00;;;12.30;66.80;;;;;;5029211;28;20049;-68
2022/04/27 09:49:11;;;;;;;4.10;0.90;;;12.20;66.30;;;;;;5027658;28;20046;-69
2022/04/27 09:51:37;;;;;;;7.00;0.93;;;12.10;65.90;;;;;;5031287;28;20124;-68
2022/04/27 09:54:03;;;;;;;4.18;1.13;;;12.00;67.60;;;;;;5031984;28;20037;-68
2022/04/27 09:56:39;;;;;;;4.38;1.00;;;11.90;66.10;;;;;;5029943;28;20109;-69
2022/04/27 09:59:08;;;;;;;6.20;1.20;;;11.90;66.40;;;;;;5028784;28;20142;-69
2022/04/27 10:01:36;;;;;;;5.55;1.52;;;11.90;68.30;;;;;;5029797;28;20099;-69
2022/04/27 10:04:06;;;;;;;4.15;1.20;;;12.00;68.00;;;;;;5028774;28;20478;-69
2022/04/27 10:06:34;;;;;;;5.95;1.15;;;12.00;65.80;;;;;;5031115;28;20046;-69
2022/04/27 10:09:00;;;;;;;4.10;1.10;;;11.90;65.40;;;;;;5030910;28;20069;-69
2022/04/27 10:11:27;;;;;;;5.40;1.08;;;12.00;66.50;;;;;;5031276;28;20427;-69
2022/04/27 10:13:56;;;;;;;4.35;0.98;;;11.90;64.40;;;;;;5029404;28;20045;-69
2022/04/27 10:16:25;;;;;;;5.90;1.35;;;11.90;66.20;;;;;;5029522;28;20049;-68
2022/04/27 10:18:54;;;;;;;6.18;1.90;;;12.00;66.90;;;;;;5011849;28;20044;-69
2022/04/27 10:21:43;;;;;;;6.28;1.55;;;12.10;66.80;;;;;;5026882;28;20074;-68
2022/04/27 10:24:10;;;;;;;3.20;0.82;;;12.00;63.90;;;;;;5030456;28;20132;-69
2022/04/27 10:26:36;;;;;;;3.83;1.00;;;12.00;65.80;;;;;;5030940;28;20037;-69
2022/04/27 10:29:06;;;;;;;5.15;1.75;;;12.00;66.50;;;;;;5030567;28;20507;-67
2022/04/27 10:31:40;;;;;;;4.28;1.00;;;12.20;68.30;;;;;;5030877;28;20037;-69
2022/04/27 10:34:25;;;;;;;7.07;1.50;;;12.30;68.10;;;;;;5019433;28;20042;-68
2022/04/27 10:36:59;;;;;;;6.30;1.40;;;12.50;65.90;;;;;;5026668;28;20374;-68
2022/04/27 10:39:32;;;;;;;8.60;1.15;;;12.60;67.30;;;;;;5030475;28;20067;-68
2022/04/27 10:42:04;;;;;;;5.20;1.25;;;12.70;67.40;;;;;;5028905;28;20049;-69
2022/04/27 10:44:53;;;;;;;8.23;2.42;;;12.60;67.20;;;;;;5028203;28;20049;-69
2022/04/27 10:47:20;;;;;;;5.88;1.80;;;12.80;65.60;;;;;;5030133;28;20045;-69
2022/04/27 10:50:05;;;;;;;6.15;1.23;;;12.90;67.00;;;;;;5028258;28;20045;-70
2022/04/27 10:52:42;;;;;;;5.63;1.20;;;12.90;65.10;;;;;;5023317;28;20501;-70
2022/04/27 10:55:34;;;;;;;4.93;1.13;;;12.90;65.10;;;;;;5025115;28;20045;-69
2022/04/27 10:58:21;;;;;;;5.47;1.38;;;12.90;65.80;;;;;;5029972;28;20106;-70
2022/04/27 11:01:02;;;;;;;4.72;1.30;;;13.10;65.10;;;;;;5028491;28;20107;-68
2022/04/27 11:03:29;;;;;;;4.68;1.30;;;13.20;65.00;;;;;;5025798;28;20402;-69
2022/04/27 11:06:00;;;;;;;4.70;1.15;;;13.40;66.40;;;;;;5029267;28;20096;-69
2022/04/27 11:08:54;;;;;;;5.50;1.52;;;13.50;65.10;;;;;;5029661;28;20072;-69
2022/04/27 11:11:24;;;;;;;6.15;1.35;;;13.60;65.80;;;;;;5021361;28;20049;-68
2022/04/27 11:13:51;;;;;;;10.50;1.88;;;13.80;65.10;;;;;;5030219;28;20041;-69
2022/04/27 11:16:16;;;;;;;7.30;1.65;;;14.00;65.10;;;;;;5028548;28;20157;-69
2022/04/27 11:18:52;;;;;;;5.53;1.40;;;14.30;64.10;;;;;;5029364;28;20034;-69
2022/04/27 11:21:19;;;;;;;6.25;2.13;;;14.60;63.00;;;;;;5026165;28;20041;-69
2022/04/27 11:23:46;;;;;;;3.65;1.27;;;14.90;63.90;;;;;;5029568;28;20033;-69
2022/04/27 11:26:13;;;;;;;9.25;2.03;;;15.10;63.30;;;;;;5028525;28;20179;-69
2022/04/27 11:28:41;;;;;;;5.45;1.80;;;15.20;62.20;;;;;;5011317;28;20083;-70
2022/04/27 11:31:07;;;;;;;4.53;1.60;;;15.10;59.80;;;;;;5027169;28;20044;-70
2022/04/27 11:33:39;;;;;;;4.53;1.50;;;15.00;60.00;;;;;;5027663;28;20045;-70
2022/04/27 11:36:20;;;;;;;3.95;1.55;;;14.90;60.30;;;;;;5029284;28;20485;-69
2022/04/27 11:38:46;;;;;;;5.72;1.90;;;14.60;58.90;;;;;;5027915;28;20148;-69
2022/04/27 11:41:20;;;;;;;5.43;1.30;;;14.30;58.80;;;;;;5030218;28;20708;-69
2022/04/27 11:43:50;;;;;;;5.82;1.38;;;14.10;59.20;;;;;;5027104;28;20048;-69
2022/04/27 11:46:16;;;;;;;6.40;1.17;;;13.90;60.20;;;;;;5027407;28;20517;-69
2022/04/27 11:48:49;;;;;;;5.80;1.20;;;13.90;61.40;;;;;;5029152;28;20180;-69
2022/04/27 11:51:15;;;;;;;5.75;1.65;;;14.00;61.10;;;;;;5027099;28;20049;-69
2022/04/27 11:53:47;;;;;;;5.88;1.80;;;13.90;62.00;;;;;;5027629;28;20042;-69
2022/04/27 11:56:13;;;;;;;3.60;1.67;;;13.90;62.70;;;;;;5010325;28;20049;-70
2022/04/27 11:58:39;;;;;;;7.25;1.90;;;14.00;63.50;;;;;;5032015;28;20041;-70
2022/04/27 12:01:05;;;;;;;6.57;2.00;;;14.00;62.60;;;;;;5033350;28;20487;-69
2022/04/27 12:03:38;;;;;;;5.80;2.00;;;14.00;62.70;;;;;;5031151;28;20045;-69
2022/04/27 12:06:05;;;;;;;4.97;1.63;;;14.00;63.50;;;;;;5032013;28;20282;-69
2022/04/27 12:08:31;;;;;;;4.90;1.60;;;14.00;62.40;;;;;;5033314;28;20038;-69
2022/04/27 12:10:56;;;;;;;7.07;1.88;;;14.00;62.30;;;;;;5033426;28;20406;-69
2022/04/27 12:13:23;;;;;;;5.80;2.10;;;13.80;62.00;;;;;;5033126;28;20076;-70
2022/04/27 12:15:54;;;;;;;4.25;1.63;;;13.80;62.90;;;;;;5033327;28;20477;-68
2022/04/27 12:18:20;;;;;;;4.28;1.48;;;13.90;62.80;;;;;;5030840;28;20409;-69
2022/04/27 12:20:48;;;;;;;4.32;1.70;;;13.90;62.50;;;;;;5032929;28;20042;-68
2022/04/27 12:23:34;;;;;;;6.18;1.70;;;14.00;61.50;;;;;;5031311;28;20123;-69
2022/04/27 12:26:00;;;;;;;5.03;1.60;;;14.30;61.50;;;;;;5028066;28;20060;-68
2022/04/27 12:28:26;;;;;;;4.18;1.30;;;14.50;60.10;;;;;;5032880;28;20041;-69
2022/04/27 12:31:06;;;;;;;5.13;1.30;;;14.60;58.40;;;;;;5031945;28;20369;-69
2022/04/27 12:33:38;;;;;;;5.55;1.38;;;14.70;58.50;;;;;;5029898;28;20041;-69
2022/04/27 12:39:08;;;;;;;7.20;1.70;;;14.70;57.80;;;;;;5031093;28;20056;-70
2022/04/27 12:41:37;;;;;;;;;;;14.70;59.20;;;;;;5029869;28;20050;-69
2022/04/27 12:44:05;;;;;;;7.15;1.52;;;14.70;56.40;;;;;;5031619;28;19955;-69
2022/04/27 12:46:31;;;;;;;5.55;1.48;;;14.70;58.70;;;;;;5030717;28;20065;-69
2022/04/27 12:49:07;;;;;;;7.28;1.40;;;14.70;58.50;;;;;;5032174;28;20065;-69
2022/04/27 12:51:35;;;;;;;6.00;1.92;;;14.60;57.70;;;;;;5031028;28;20427;-70
2022/04/27 12:54:02;;;;;;;7.13;1.60;;;14.50;60.10;;;;;;5032121;28;20095;-70
2022/04/27 12:56:32;;;;;;;6.75;1.80;;;14.50;61.20;;;;;;5030966;28;20073;-70
2022/04/27 12:59:11;;;;;;;7.00;1.50;;;14.60;60.70;;;;;;5014540;28;20083;-70
2022/04/27 13:01:37;;;;;;;7.50;1.58;;;14.60;60.00;;;;;;5016157;28;20092;-69
2022/04/27 13:04:03;;;;;;;8.77;1.65;;;14.50;60.30;;;;;;5030089;28;20091;-70
2022/04/27 13:06:31;;;;;;;6.13;1.60;;;14.40;60.50;;;;;;5030694;28;20033;-70
2022/04/27 13:11:56;;;;;;;4.22;1.77;;;14.30;60.90;;;;;;5032036;28;20103;-69
2022/04/27 13:14:26;;;;;;;7.68;1.75;;;14.20;61.40;;;;;;5030410;28;20124;-69
2022/04/27 13:16:56;;;;;;;8.65;2.00;;;14.10;61.60;;;;;;5030465;28;20038;-69
2022/04/27 13:19:23;;;;;;;5.60;2.00;;;13.90;61.30;;;;;;5028798;28;20041;-70